sensor_id;sensor_type;location;lat;lon;timestamp;P1;durP1;ratioP1;P2;durP2;ratioP2
46845;SDS011;33947;46.804;134.252;2023-04-25T00:02:17;41.13;;;16.50;;
46845;SDS011;33947;46.804;134.252;2023-04-25T00:05:23;27.95;;;14.75;;
46845;SDS011;33947;46.804;134.252;2023-04-25T00:08:28;32.45;;;19.83;;
46845;SDS011;33947;46.804;134.252;2023-04-25T00:11:33;34.17;;;17.48;;
46845;SDS011;33947;46.804;134.252;2023-04-25T00:14:39;27.15;;;17.88;;
46845;SDS011;33947;46.804;134.252;2023-04-25T00:17:43;28.20;;;16.08;;
46845;SDS011;33947;46.804;134.252;2023-04-25T00:20:48;29.48;;;17.90;;
46845;SDS011;33947;46.804;134.252;2023-04-25T00:23:52;26.77;;;16.60;;
46845;SDS011;33947;46.804;134.252;2023-04-25T00:26:56;39.58;;;17.95;;
46845;SDS011;33947;46.804;134.252;2023-04-25T00:30:00;33.35;;;17.17;;
46845;SDS011;33947;46.804;134.252;2023-04-25T00:33:07;31.90;;;19.15;;
46845;SDS011;33947;46.804;134.252;2023-04-25T00:39:18;26.27;;;16.50;;
46845;SDS011;33947;46.804;134.252;2023-04-25T00:42:23;35.28;;;15.68;;
46845;SDS011;33947;46.804;134.252;2023-04-25T00:45:28;28.35;;;15.63;;
46845;SDS011;33947;46.804;134.252;2023-04-25T00:48:33;26.90;;;15.48;;
46845;SDS011;33947;46.804;134.252;2023-04-25T00:51:38;27.23;;;17.23;;
46845;SDS011;33947;46.804;134.252;2023-04-25T00:54:42;24.15;;;15.55;;
46845;SDS011;33947;46.804;134.252;2023-04-25T00:57:46;34.47;;;17.02;;
46845;SDS011;33947;46.804;134.252;2023-04-25T01:00:51;37.50;;;17.50;;
46845;SDS011;33947;46.804;134.252;2023-04-25T01:03:58;32.40;;;17.80;;
46845;SDS011;33947;46.804;134.252;2023-04-25T01:07:03;31.02;;;18.58;;
46845;SDS011;33947;46.804;134.252;2023-04-25T01:10:08;31.75;;;17.60;;
46845;SDS011;33947;46.804;134.252;2023-04-25T01:13:13;36.15;;;19.90;;
46845;SDS011;33947;46.804;134.252;2023-04-25T01:16:18;32.97;;;18.88;;
46845;SDS011;33947;46.804;134.252;2023-04-25T01:19:23;35.75;;;17.63;;
46845;SDS011;33947;46.804;134.252;2023-04-25T01:22:29;29.23;;;18.17;;
46845;SDS011;33947;46.804;134.252;2023-04-25T01:25:34;26.00;;;17.45;;
46845;SDS011;33947;46.804;134.252;2023-04-25T01:28:39;31.40;;;17.02;;
46845;SDS011;33947;46.804;134.252;2023-04-25T01:31:46;30.52;;;17.17;;
46845;SDS011;33947;46.804;134.252;2023-04-25T01:34:51;29.33;;;16.47;;
46845;SDS011;33947;46.804;134.252;2023-04-25T01:37:55;38.85;;;18.35;;
46845;SDS011;33947;46.804;134.252;2023-04-25T01:40:59;33.53;;;19.08;;
46845;SDS011;33947;46.804;134.252;2023-04-25T01:44:04;27.45;;;15.43;;
46845;SDS011;33947;46.804;134.252;2023-04-25T01:47:08;26.92;;;16.92;;
46845;SDS011;33947;46.804;134.252;2023-04-25T01:50:13;47.20;;;19.05;;
46845;SDS011;33947;46.804;134.252;2023-04-25T01:53:18;26.30;;;14.65;;
46845;SDS011;33947;46.804;134.252;2023-04-25T01:56:23;26.67;;;15.60;;
46845;SDS011;33947;46.804;134.252;2023-04-25T01:59:28;25.17;;;15.20;;
46845;SDS011;33947;46.804;134.252;2023-04-25T02:03:06;21.80;;;13.70;;
46845;SDS011;33947;46.804;134.252;2023-04-25T02:09:19;26.08;;;13.27;;
46845;SDS011;33947;46.804;134.252;2023-04-25T02:12:27;19.35;;;11.18;;
46845;SDS011;33947;46.804;134.252;2023-04-25T02:15:37;26.02;;;12.93;;
46845;SDS011;33947;46.804;134.252;2023-04-25T02:18:53;20.45;;;12.18;;
46845;SDS011;33947;46.804;134.252;2023-04-25T02:21:57;22.13;;;10.88;;
46845;SDS011;33947;46.804;134.252;2023-04-25T02:25:02;18.27;;;10.93;;
46845;SDS011;33947;46.804;134.252;2023-04-25T02:28:08;19.35;;;10.23;;
46845;SDS011;33947;46.804;134.252;2023-04-25T02:31:13;20.13;;;10.68;;
46845;SDS011;33947;46.804;134.252;2023-04-25T02:34:17;17.00;;;10.63;;
46845;SDS011;33947;46.804;134.252;2023-04-25T02:37:22;61.37;;;12.80;;
46845;SDS011;33947;46.804;134.252;2023-04-25T02:40:26;16.65;;;8.75;;
46845;SDS011;33947;46.804;134.252;2023-04-25T02:43:31;14.60;;;9.27;;
46845;SDS011;33947;46.804;134.252;2023-04-25T02:46:35;26.45;;;8.68;;
46845;SDS011;33947;46.804;134.252;2023-04-25T02:49:41;20.23;;;8.00;;
46845;SDS011;33947;46.804;134.252;2023-04-25T02:52:45;22.40;;;8.43;;
46845;SDS011;33947;46.804;134.252;2023-04-25T02:55:58;18.95;;;7.95;;
46845;SDS011;33947;46.804;134.252;2023-04-25T02:59:03;14.03;;;6.20;;
46845;SDS011;33947;46.804;134.252;2023-04-25T03:02:07;12.38;;;6.25;;
46845;SDS011;33947;46.804;134.252;2023-04-25T03:05:12;9.07;;;6.35;;
46845;SDS011;33947;46.804;134.252;2023-04-25T03:08:16;21.83;;;7.20;;
46845;SDS011;33947;46.804;134.252;2023-04-25T03:14:25;16.17;;;7.55;;
46845;SDS011;33947;46.804;134.252;2023-04-25T03:17:30;15.25;;;7.38;;
46845;SDS011;33947;46.804;134.252;2023-04-25T03:20:35;12.63;;;7.00;;
46845;SDS011;33947;46.804;134.252;2023-04-25T03:23:39;16.50;;;7.25;;
46845;SDS011;33947;46.804;134.252;2023-04-25T03:26:43;10.52;;;6.47;;
46845;SDS011;33947;46.804;134.252;2023-04-25T03:29:47;12.32;;;6.38;;
46845;SDS011;33947;46.804;134.252;2023-04-25T03:32:52;9.65;;;6.07;;
46845;SDS011;33947;46.804;134.252;2023-04-25T03:35:57;9.18;;;7.25;;
46845;SDS011;33947;46.804;134.252;2023-04-25T03:39:03;12.40;;;6.82;;
46845;SDS011;33947;46.804;134.252;2023-04-25T03:42:08;13.40;;;6.00;;
46845;SDS011;33947;46.804;134.252;2023-04-25T03:45:13;13.43;;;5.55;;
46845;SDS011;33947;46.804;134.252;2023-04-25T03:48:16;12.15;;;5.32;;
46845;SDS011;33947;46.804;134.252;2023-04-25T03:51:21;11.80;;;6.15;;
46845;SDS011;33947;46.804;134.252;2023-04-25T03:54:26;13.98;;;6.22;;
46845;SDS011;33947;46.804;134.252;2023-04-25T03:57:37;9.57;;;5.95;;
46845;SDS011;33947;46.804;134.252;2023-04-25T04:00:41;14.45;;;6.50;;
46845;SDS011;33947;46.804;134.252;2023-04-25T04:03:46;13.23;;;6.60;;
46845;SDS011;33947;46.804;134.252;2023-04-25T04:06:51;10.77;;;6.05;;
46845;SDS011;33947;46.804;134.252;2023-04-25T04:10:01;18.15;;;7.88;;
46845;SDS011;33947;46.804;134.252;2023-04-25T04:13:10;11.60;;;5.40;;
46845;SDS011;33947;46.804;134.252;2023-04-25T04:16:14;49.97;;;11.27;;
46845;SDS011;33947;46.804;134.252;2023-04-25T04:19:19;12.77;;;7.00;;
46845;SDS011;33947;46.804;134.252;2023-04-25T04:22:33;10.65;;;6.03;;
46845;SDS011;33947;46.804;134.252;2023-04-25T04:25:42;14.52;;;6.80;;
46845;SDS011;33947;46.804;134.252;2023-04-25T04:29:12;16.52;;;7.13;;
46845;SDS011;33947;46.804;134.252;2023-04-25T04:32:37;11.43;;;7.20;;
46845;SDS011;33947;46.804;134.252;2023-04-25T04:35:42;21.23;;;7.78;;
46845;SDS011;33947;46.804;134.252;2023-04-25T04:38:47;9.23;;;6.25;;
46845;SDS011;33947;46.804;134.252;2023-04-25T04:42:00;16.05;;;7.72;;
46845;SDS011;33947;46.804;134.252;2023-04-25T04:45:16;18.45;;;7.97;;
46845;SDS011;33947;46.804;134.252;2023-04-25T04:48:53;13.98;;;7.68;;
46845;SDS011;33947;46.804;134.252;2023-04-25T04:52:17;19.50;;;7.43;;
46845;SDS011;33947;46.804;134.252;2023-04-25T04:55:56;12.25;;;6.78;;
46845;SDS011;33947;46.804;134.252;2023-04-25T04:59:10;14.70;;;6.57;;
46845;SDS011;33947;46.804;134.252;2023-04-25T05:02:22;15.60;;;6.40;;
46845;SDS011;33947;46.804;134.252;2023-04-25T05:05:45;11.25;;;6.97;;
46845;SDS011;33947;46.804;134.252;2023-04-25T05:09:06;16.63;;;6.93;;
46845;SDS011;33947;46.804;134.252;2023-04-25T05:12:20;17.02;;;8.18;;
46845;SDS011;33947;46.804;134.252;2023-04-25T05:15:47;10.10;;;6.68;;
46845;SDS011;33947;46.804;134.252;2023-04-25T05:19:12;11.60;;;6.90;;
46845;SDS011;33947;46.804;134.252;2023-04-25T05:22:27;17.40;;;7.38;;
46845;SDS011;33947;46.804;134.252;2023-04-25T05:25:43;17.83;;;7.85;;
46845;SDS011;33947;46.804;134.252;2023-04-25T05:29:06;17.60;;;7.88;;
46845;SDS011;33947;46.804;134.252;2023-04-25T05:32:34;15.68;;;8.38;;
46845;SDS011;33947;46.804;134.252;2023-04-25T05:35:39;15.02;;;7.82;;
46845;SDS011;33947;46.804;134.252;2023-04-25T05:38:45;12.52;;;8.02;;
46845;SDS011;33947;46.804;134.252;2023-04-25T05:41:49;13.50;;;8.25;;
46845;SDS011;33947;46.804;134.252;2023-04-25T05:45:13;13.00;;;7.90;;
46845;SDS011;33947;46.804;134.252;2023-04-25T05:48:47;13.85;;;7.63;;
46845;SDS011;33947;46.804;134.252;2023-04-25T05:52:14;12.85;;;7.18;;
46845;SDS011;33947;46.804;134.252;2023-04-25T05:55:26;18.17;;;8.77;;
46845;SDS011;33947;46.804;134.252;2023-04-25T05:58:33;10.63;;;6.47;;
46845;SDS011;33947;46.804;134.252;2023-04-25T06:01:37;15.90;;;6.88;;
46845;SDS011;33947;46.804;134.252;2023-04-25T06:04:43;16.35;;;6.35;;
46845;SDS011;33947;46.804;134.252;2023-04-25T06:07:48;12.63;;;7.10;;
46845;SDS011;33947;46.804;134.252;2023-04-25T06:10:52;8.40;;;6.38;;
46845;SDS011;33947;46.804;134.252;2023-04-25T06:13:58;20.70;;;6.38;;
46845;SDS011;33947;46.804;134.252;2023-04-25T06:17:02;12.97;;;6.13;;
46845;SDS011;33947;46.804;134.252;2023-04-25T06:20:11;13.77;;;6.32;;
46845;SDS011;33947;46.804;134.252;2023-04-25T06:23:16;22.63;;;6.35;;
46845;SDS011;33947;46.804;134.252;2023-04-25T06:26:27;15.82;;;6.15;;
46845;SDS011;33947;46.804;134.252;2023-04-25T06:29:32;11.85;;;5.20;;
46845;SDS011;33947;46.804;134.252;2023-04-25T06:32:36;11.75;;;6.40;;
46845;SDS011;33947;46.804;134.252;2023-04-25T06:35:41;32.08;;;13.45;;
46845;SDS011;33947;46.804;134.252;2023-04-25T06:38:47;11.25;;;5.45;;
46845;SDS011;33947;46.804;134.252;2023-04-25T06:41:52;16.33;;;6.45;;
46845;SDS011;33947;46.804;134.252;2023-04-25T06:45:14;17.45;;;5.63;;
46845;SDS011;33947;46.804;134.252;2023-04-25T06:48:19;13.00;;;5.32;;
46845;SDS011;33947;46.804;134.252;2023-04-25T06:51:26;14.27;;;5.65;;
46845;SDS011;33947;46.804;134.252;2023-04-25T06:54:33;10.43;;;5.10;;
46845;SDS011;33947;46.804;134.252;2023-04-25T06:57:48;16.40;;;6.40;;
46845;SDS011;33947;46.804;134.252;2023-04-25T07:01:21;14.48;;;7.90;;
46845;SDS011;33947;46.804;134.252;2023-04-25T07:04:26;9.60;;;4.72;;
46845;SDS011;33947;46.804;134.252;2023-04-25T07:07:32;12.05;;;5.28;;
46845;SDS011;33947;46.804;134.252;2023-04-25T07:10:37;17.60;;;5.13;;
46845;SDS011;33947;46.804;134.252;2023-04-25T07:13:41;17.73;;;5.53;;
46845;SDS011;33947;46.804;134.252;2023-04-25T07:16:45;11.18;;;4.80;;
46845;SDS011;33947;46.804;134.252;2023-04-25T07:19:50;9.95;;;5.15;;
46845;SDS011;33947;46.804;134.252;2023-04-25T07:22:55;11.27;;;4.80;;
46845;SDS011;33947;46.804;134.252;2023-04-25T07:26:00;18.17;;;5.35;;
46845;SDS011;33947;46.804;134.252;2023-04-25T07:29:05;19.40;;;7.07;;
46845;SDS011;33947;46.804;134.252;2023-04-25T07:32:09;9.63;;;4.93;;
46845;SDS011;33947;46.804;134.252;2023-04-25T07:35:17;11.27;;;6.35;;
46845;SDS011;33947;46.804;134.252;2023-04-25T07:38:22;11.77;;;7.13;;
46845;SDS011;33947;46.804;134.252;2023-04-25T07:41:27;14.27;;;5.83;;
46845;SDS011;33947;46.804;134.252;2023-04-25T07:44:31;12.63;;;5.28;;
46845;SDS011;33947;46.804;134.252;2023-04-25T07:47:38;13.35;;;5.68;;
46845;SDS011;33947;46.804;134.252;2023-04-25T07:50:43;11.85;;;5.28;;
46845;SDS011;33947;46.804;134.252;2023-04-25T07:53:49;13.80;;;5.45;;
46845;SDS011;33947;46.804;134.252;2023-04-25T07:56:55;14.85;;;5.18;;
46845;SDS011;33947;46.804;134.252;2023-04-25T08:00:04;12.35;;;4.90;;
46845;SDS011;33947;46.804;134.252;2023-04-25T08:03:17;17.65;;;6.50;;
46845;SDS011;33947;46.804;134.252;2023-04-25T08:09:41;14.45;;;6.28;;
46845;SDS011;33947;46.804;134.252;2023-04-25T08:12:54;18.77;;;9.63;;
46845;SDS011;33947;46.804;134.252;2023-04-25T08:15:59;14.80;;;6.35;;
46845;SDS011;33947;46.804;134.252;2023-04-25T08:19:04;10.48;;;5.65;;
46845;SDS011;33947;46.804;134.252;2023-04-25T08:22:09;15.90;;;5.60;;
46845;SDS011;33947;46.804;134.252;2023-04-25T08:25:25;13.88;;;6.25;;
46845;SDS011;33947;46.804;134.252;2023-04-25T08:28:29;13.32;;;6.45;;
46845;SDS011;33947;46.804;134.252;2023-04-25T08:31:36;11.85;;;5.70;;
46845;SDS011;33947;46.804;134.252;2023-04-25T08:34:42;19.40;;;5.97;;
46845;SDS011;33947;46.804;134.252;2023-04-25T08:37:47;14.03;;;5.90;;
46845;SDS011;33947;46.804;134.252;2023-04-25T08:40:52;11.20;;;4.90;;
46845;SDS011;33947;46.804;134.252;2023-04-25T08:43:58;17.00;;;6.07;;
46845;SDS011;33947;46.804;134.252;2023-04-25T08:47:04;14.63;;;6.22;;
46845;SDS011;33947;46.804;134.252;2023-04-25T08:50:17;17.40;;;6.70;;
46845;SDS011;33947;46.804;134.252;2023-04-25T08:53:26;12.75;;;8.05;;
46845;SDS011;33947;46.804;134.252;2023-04-25T08:56:34;9.43;;;5.25;;
46845;SDS011;33947;46.804;134.252;2023-04-25T08:59:39;17.17;;;5.57;;
46845;SDS011;33947;46.804;134.252;2023-04-25T09:02:48;13.25;;;7.07;;
46845;SDS011;33947;46.804;134.252;2023-04-25T09:05:53;9.80;;;4.65;;
46845;SDS011;33947;46.804;134.252;2023-04-25T09:09:09;9.73;;;4.80;;
46845;SDS011;33947;46.804;134.252;2023-04-25T09:12:15;9.27;;;5.22;;
46845;SDS011;33947;46.804;134.252;2023-04-25T09:15:23;8.80;;;4.60;;
46845;SDS011;33947;46.804;134.252;2023-04-25T09:18:42;15.27;;;5.70;;
46845;SDS011;33947;46.804;134.252;2023-04-25T09:21:55;14.65;;;5.88;;
46845;SDS011;33947;46.804;134.252;2023-04-25T09:25:08;10.82;;;5.85;;
46845;SDS011;33947;46.804;134.252;2023-04-25T09:28:15;14.97;;;6.43;;
46845;SDS011;33947;46.804;134.252;2023-04-25T09:31:22;16.98;;;8.13;;
46845;SDS011;33947;46.804;134.252;2023-04-25T09:34:38;12.65;;;6.70;;
46845;SDS011;33947;46.804;134.252;2023-04-25T09:37:47;29.83;;;15.82;;
46845;SDS011;33947;46.804;134.252;2023-04-25T09:41:15;45.15;;;22.40;;
46845;SDS011;33947;46.804;134.252;2023-04-25T09:44:30;21.15;;;9.32;;
46845;SDS011;33947;46.804;134.252;2023-04-25T09:47:36;11.23;;;7.15;;
46845;SDS011;33947;46.804;134.252;2023-04-25T09:50:43;10.38;;;6.68;;
46845;SDS011;33947;46.804;134.252;2023-04-25T09:53:48;14.60;;;6.65;;
46845;SDS011;33947;46.804;134.252;2023-04-25T09:57:20;22.90;;;6.45;;
46845;SDS011;33947;46.804;134.252;2023-04-25T10:00:28;12.70;;;6.28;;
46845;SDS011;33947;46.804;134.252;2023-04-25T10:03:43;11.15;;;6.30;;
46845;SDS011;33947;46.804;134.252;2023-04-25T10:07:14;9.27;;;5.18;;
46845;SDS011;33947;46.804;134.252;2023-04-25T10:10:19;13.25;;;5.63;;
46845;SDS011;33947;46.804;134.252;2023-04-25T10:13:29;10.40;;;6.15;;
46845;SDS011;33947;46.804;134.252;2023-04-25T10:16:34;16.35;;;7.13;;
46845;SDS011;33947;46.804;134.252;2023-04-25T10:19:39;14.82;;;6.05;;
46845;SDS011;33947;46.804;134.252;2023-04-25T10:22:45;12.17;;;5.90;;
46845;SDS011;33947;46.804;134.252;2023-04-25T10:25:51;9.82;;;5.43;;
46845;SDS011;33947;46.804;134.252;2023-04-25T10:29:00;9.85;;;5.95;;
46845;SDS011;33947;46.804;134.252;2023-04-25T10:32:06;16.48;;;6.22;;
46845;SDS011;33947;46.804;134.252;2023-04-25T10:35:13;16.35;;;6.38;;
46845;SDS011;33947;46.804;134.252;2023-04-25T10:38:22;28.10;;;12.00;;
46845;SDS011;33947;46.804;134.252;2023-04-25T10:44:33;11.57;;;6.18;;
46845;SDS011;33947;46.804;134.252;2023-04-25T10:47:43;35.67;;;13.93;;
46845;SDS011;33947;46.804;134.252;2023-04-25T10:50:48;25.77;;;10.38;;
46845;SDS011;33947;46.804;134.252;2023-04-25T10:56:58;17.73;;;9.23;;
46845;SDS011;33947;46.804;134.252;2023-04-25T11:03:16;20.42;;;11.15;;
46845;SDS011;33947;46.804;134.252;2023-04-25T11:09:46;11.35;;;5.93;;
46845;SDS011;33947;46.804;134.252;2023-04-25T11:12:58;11.90;;;5.07;;
46845;SDS011;33947;46.804;134.252;2023-04-25T11:16:09;10.20;;;6.47;;
46845;SDS011;33947;46.804;134.252;2023-04-25T11:19:14;10.93;;;5.53;;
46845;SDS011;33947;46.804;134.252;2023-04-25T11:22:19;12.95;;;7.05;;
46845;SDS011;33947;46.804;134.252;2023-04-25T11:25:25;8.05;;;5.38;;
46845;SDS011;33947;46.804;134.252;2023-04-25T11:28:30;8.27;;;5.25;;
46845;SDS011;33947;46.804;134.252;2023-04-25T11:31:34;9.65;;;5.50;;
46845;SDS011;33947;46.804;134.252;2023-04-25T11:34:39;11.60;;;6.00;;
46845;SDS011;33947;46.804;134.252;2023-04-25T11:37:48;11.15;;;5.00;;
46845;SDS011;33947;46.804;134.252;2023-04-25T11:40:54;10.30;;;5.78;;
46845;SDS011;33947;46.804;134.252;2023-04-25T11:43:58;8.93;;;5.18;;
46845;SDS011;33947;46.804;134.252;2023-04-25T11:47:03;11.63;;;5.13;;
46845;SDS011;33947;46.804;134.252;2023-04-25T11:50:07;9.73;;;5.78;;
46845;SDS011;33947;46.804;134.252;2023-04-25T11:56:18;13.65;;;6.15;;
46845;SDS011;33947;46.804;134.252;2023-04-25T11:59:24;10.02;;;5.75;;
46845;SDS011;33947;46.804;134.252;2023-04-25T12:02:30;19.10;;;6.30;;
46845;SDS011;33947;46.804;134.252;2023-04-25T12:05:35;10.93;;;5.15;;
46845;SDS011;33947;46.804;134.252;2023-04-25T12:08:58;12.07;;;6.68;;
46845;SDS011;33947;46.804;134.252;2023-04-25T12:12:12;11.27;;;6.20;;
46845;SDS011;33947;46.804;134.252;2023-04-25T12:15:22;12.50;;;5.68;;
46845;SDS011;33947;46.804;134.252;2023-04-25T12:18:28;14.68;;;5.47;;
46845;SDS011;33947;46.804;134.252;2023-04-25T12:21:33;14.40;;;5.55;;
46845;SDS011;33947;46.804;134.252;2023-04-25T12:24:52;11.60;;;5.10;;
46845;SDS011;33947;46.804;134.252;2023-04-25T12:31:30;11.73;;;6.13;;
46845;SDS011;33947;46.804;134.252;2023-04-25T12:34:36;12.00;;;5.68;;
46845;SDS011;33947;46.804;134.252;2023-04-25T12:37:42;15.38;;;6.80;;
46845;SDS011;33947;46.804;134.252;2023-04-25T12:40:46;15.03;;;5.90;;
46845;SDS011;33947;46.804;134.252;2023-04-25T12:43:51;14.20;;;6.60;;
46845;SDS011;33947;46.804;134.252;2023-04-25T12:46:55;9.30;;;5.63;;
46845;SDS011;33947;46.804;134.252;2023-04-25T12:50:00;10.52;;;5.55;;
46845;SDS011;33947;46.804;134.252;2023-04-25T12:53:05;12.43;;;6.03;;
46845;SDS011;33947;46.804;134.252;2023-04-25T12:56:09;10.35;;;5.10;;
46845;SDS011;33947;46.804;134.252;2023-04-25T12:59:14;11.27;;;5.90;;
46845;SDS011;33947;46.804;134.252;2023-04-25T13:02:19;12.05;;;6.28;;
46845;SDS011;33947;46.804;134.252;2023-04-25T13:05:24;8.82;;;5.47;;
46845;SDS011;33947;46.804;134.252;2023-04-25T13:08:29;12.35;;;5.88;;
46845;SDS011;33947;46.804;134.252;2023-04-25T13:11:34;10.55;;;5.85;;
46845;SDS011;33947;46.804;134.252;2023-04-25T13:14:38;14.00;;;6.13;;
46845;SDS011;33947;46.804;134.252;2023-04-25T13:17:42;8.68;;;5.22;;
46845;SDS011;33947;46.804;134.252;2023-04-25T13:20:47;13.32;;;5.43;;
46845;SDS011;33947;46.804;134.252;2023-04-25T13:23:52;11.93;;;5.72;;
46845;SDS011;33947;46.804;134.252;2023-04-25T13:26:57;10.10;;;5.50;;
46845;SDS011;33947;46.804;134.252;2023-04-25T13:30:04;7.77;;;4.73;;
46845;SDS011;33947;46.804;134.252;2023-04-25T13:33:13;10.82;;;4.50;;
46845;SDS011;33947;46.804;134.252;2023-04-25T13:36:18;8.38;;;4.88;;
46845;SDS011;33947;46.804;134.252;2023-04-25T13:39:23;10.70;;;4.90;;
46845;SDS011;33947;46.804;134.252;2023-04-25T13:42:28;11.03;;;5.50;;
46845;SDS011;33947;46.804;134.252;2023-04-25T13:45:32;8.13;;;4.97;;
46845;SDS011;33947;46.804;134.252;2023-04-25T13:48:37;8.10;;;4.78;;
46845;SDS011;33947;46.804;134.252;2023-04-25T13:51:41;6.75;;;4.25;;
46845;SDS011;33947;46.804;134.252;2023-04-25T13:54:46;7.00;;;4.53;;
46845;SDS011;33947;46.804;134.252;2023-04-25T13:57:50;8.95;;;5.28;;
46845;SDS011;33947;46.804;134.252;2023-04-25T14:00:55;9.95;;;4.72;;
46845;SDS011;33947;46.804;134.252;2023-04-25T14:04:00;9.38;;;5.05;;
46845;SDS011;33947;46.804;134.252;2023-04-25T14:07:04;8.63;;;4.38;;
46845;SDS011;33947;46.804;134.252;2023-04-25T14:10:08;6.78;;;4.68;;
46845;SDS011;33947;46.804;134.252;2023-04-25T14:13:13;8.13;;;5.00;;
46845;SDS011;33947;46.804;134.252;2023-04-25T14:16:18;7.13;;;4.93;;
46845;SDS011;33947;46.804;134.252;2023-04-25T14:19:23;6.45;;;4.65;;
46845;SDS011;33947;46.804;134.252;2023-04-25T14:22:28;7.53;;;4.73;;
46845;SDS011;33947;46.804;134.252;2023-04-25T14:25:33;9.38;;;4.57;;
46845;SDS011;33947;46.804;134.252;2023-04-25T14:28:37;8.48;;;4.72;;
46845;SDS011;33947;46.804;134.252;2023-04-25T14:31:42;12.27;;;5.07;;
46845;SDS011;33947;46.804;134.252;2023-04-25T14:34:48;7.18;;;4.90;;
46845;SDS011;33947;46.804;134.252;2023-04-25T14:37:54;8.00;;;4.88;;
46845;SDS011;33947;46.804;134.252;2023-04-25T14:44:03;13.10;;;5.20;;
46845;SDS011;33947;46.804;134.252;2023-04-25T14:47:07;8.68;;;4.70;;
46845;SDS011;33947;46.804;134.252;2023-04-25T14:50:14;12.80;;;4.90;;
46845;SDS011;33947;46.804;134.252;2023-04-25T14:53:18;8.50;;;5.00;;
46845;SDS011;33947;46.804;134.252;2023-04-25T14:56:23;9.27;;;5.03;;
46845;SDS011;33947;46.804;134.252;2023-04-25T14:59:28;10.10;;;5.13;;
46845;SDS011;33947;46.804;134.252;2023-04-25T15:02:33;9.00;;;5.05;;
46845;SDS011;33947;46.804;134.252;2023-04-25T15:05:38;10.82;;;5.57;;
46845;SDS011;33947;46.804;134.252;2023-04-25T15:08:44;8.55;;;4.82;;
46845;SDS011;33947;46.804;134.252;2023-04-25T15:11:49;8.27;;;5.32;;
46845;SDS011;33947;46.804;134.252;2023-04-25T15:17:59;9.82;;;5.20;;
46845;SDS011;33947;46.804;134.252;2023-04-25T15:21:04;8.80;;;5.90;;
46845;SDS011;33947;46.804;134.252;2023-04-25T15:24:08;9.88;;;5.72;;
46845;SDS011;33947;46.804;134.252;2023-04-25T15:27:12;9.00;;;5.50;;
46845;SDS011;33947;46.804;134.252;2023-04-25T15:30:17;10.23;;;6.13;;
46845;SDS011;33947;46.804;134.252;2023-04-25T15:36:27;8.07;;;5.85;;
46845;SDS011;33947;46.804;134.252;2023-04-25T15:42:48;16.33;;;8.52;;
46845;SDS011;33947;46.804;134.252;2023-04-25T15:45:57;17.60;;;10.50;;
46845;SDS011;33947;46.804;134.252;2023-04-25T15:49:01;19.15;;;11.48;;
46845;SDS011;33947;46.804;134.252;2023-04-25T15:52:06;19.92;;;13.10;;
46845;SDS011;33947;46.804;134.252;2023-04-25T15:55:11;20.45;;;15.10;;
46845;SDS011;33947;46.804;134.252;2023-04-25T15:58:16;23.70;;;14.80;;
46845;SDS011;33947;46.804;134.252;2023-04-25T16:01:20;20.33;;;13.40;;
46845;SDS011;33947;46.804;134.252;2023-04-25T16:04:26;20.90;;;14.60;;
46845;SDS011;33947;46.804;134.252;2023-04-25T16:07:38;24.17;;;15.45;;
46845;SDS011;33947;46.804;134.252;2023-04-25T16:10:43;22.90;;;14.73;;
46845;SDS011;33947;46.804;134.252;2023-04-25T16:13:47;19.50;;;14.07;;
46845;SDS011;33947;46.804;134.252;2023-04-25T16:16:52;24.20;;;15.90;;
46845;SDS011;33947;46.804;134.252;2023-04-25T16:19:57;22.58;;;16.67;;
46845;SDS011;33947;46.804;134.252;2023-04-25T16:23:04;29.17;;;18.80;;
46845;SDS011;33947;46.804;134.252;2023-04-25T16:26:08;25.42;;;17.15;;
46845;SDS011;33947;46.804;134.252;2023-04-25T16:29:12;27.08;;;18.65;;
46845;SDS011;33947;46.804;134.252;2023-04-25T16:32:20;25.67;;;17.85;;
46845;SDS011;33947;46.804;134.252;2023-04-25T16:35:24;25.75;;;17.30;;
46845;SDS011;33947;46.804;134.252;2023-04-25T16:38:32;23.52;;;16.63;;
46845;SDS011;33947;46.804;134.252;2023-04-25T16:41:37;20.77;;;12.63;;
46845;SDS011;33947;46.804;134.252;2023-04-25T16:44:42;15.98;;;12.13;;
46845;SDS011;33947;46.804;134.252;2023-04-25T16:47:47;17.85;;;13.75;;
46845;SDS011;33947;46.804;134.252;2023-04-25T16:50:52;15.75;;;11.45;;
46845;SDS011;33947;46.804;134.252;2023-04-25T16:53:57;12.80;;;9.32;;
46845;SDS011;33947;46.804;134.252;2023-04-25T16:57:04;6.38;;;4.45;;
46845;SDS011;33947;46.804;134.252;2023-04-25T17:00:13;5.85;;;4.13;;
46845;SDS011;33947;46.804;134.252;2023-04-25T17:03:18;9.50;;;8.57;;
46845;SDS011;33947;46.804;134.252;2023-04-25T17:06:23;16.15;;;14.45;;
46845;SDS011;33947;46.804;134.252;2023-04-25T17:09:28;8.00;;;5.90;;
46845;SDS011;33947;46.804;134.252;2023-04-25T17:12:33;6.18;;;4.72;;
46845;SDS011;33947;46.804;134.252;2023-04-25T17:15:37;7.13;;;4.70;;
46845;SDS011;33947;46.804;134.252;2023-04-25T17:18:42;9.38;;;8.32;;
46845;SDS011;33947;46.804;134.252;2023-04-25T17:21:46;11.70;;;8.88;;
46845;SDS011;33947;46.804;134.252;2023-04-25T17:24:51;4.32;;;3.33;;
46845;SDS011;33947;46.804;134.252;2023-04-25T17:27:57;8.65;;;5.38;;
46845;SDS011;33947;46.804;134.252;2023-04-25T17:31:02;6.70;;;5.25;;
46845;SDS011;33947;46.804;134.252;2023-04-25T17:34:06;7.70;;;5.45;;
46845;SDS011;33947;46.804;134.252;2023-04-25T17:37:12;10.63;;;7.95;;
46845;SDS011;33947;46.804;134.252;2023-04-25T17:40:19;9.70;;;6.90;;
46845;SDS011;33947;46.804;134.252;2023-04-25T17:43:23;9.85;;;7.82;;
46845;SDS011;33947;46.804;134.252;2023-04-25T17:46:30;8.95;;;5.32;;
46845;SDS011;33947;46.804;134.252;2023-04-25T17:49:34;10.55;;;8.60;;
46845;SDS011;33947;46.804;134.252;2023-04-25T17:52:39;12.32;;;10.13;;
46845;SDS011;33947;46.804;134.252;2023-04-25T17:55:44;6.10;;;4.40;;
46845;SDS011;33947;46.804;134.252;2023-04-25T17:58:48;7.68;;;4.07;;
46845;SDS011;33947;46.804;134.252;2023-04-25T18:05:01;8.37;;;4.87;;
46845;SDS011;33947;46.804;134.252;2023-04-25T18:08:12;9.25;;;6.63;;
46845;SDS011;33947;46.804;134.252;2023-04-25T18:11:17;10.77;;;7.05;;
46845;SDS011;33947;46.804;134.252;2023-04-25T18:14:21;7.95;;;5.95;;
46845;SDS011;33947;46.804;134.252;2023-04-25T18:17:27;8.80;;;4.90;;
46845;SDS011;33947;46.804;134.252;2023-04-25T18:20:31;5.50;;;4.88;;
46845;SDS011;33947;46.804;134.252;2023-04-25T18:23:36;15.32;;;11.05;;
46845;SDS011;33947;46.804;134.252;2023-04-25T18:26:41;7.07;;;5.13;;
46845;SDS011;33947;46.804;134.252;2023-04-25T18:29:45;5.63;;;4.10;;
46845;SDS011;33947;46.804;134.252;2023-04-25T18:32:50;6.90;;;5.07;;
46845;SDS011;33947;46.804;134.252;2023-04-25T18:35:54;6.05;;;4.13;;
46845;SDS011;33947;46.804;134.252;2023-04-25T18:39:02;7.40;;;4.93;;
46845;SDS011;33947;46.804;134.252;2023-04-25T18:42:24;7.60;;;4.50;;
46845;SDS011;33947;46.804;134.252;2023-04-25T18:45:28;6.18;;;4.18;;
46845;SDS011;33947;46.804;134.252;2023-04-25T18:48:33;6.75;;;5.30;;